sensor_id;sensor_type;location;lat;lon;timestamp;temperature;humidity
14723;DHT22;7452;55.594;12.986;2023-01-28T00:02:01;-0.80;99.90
14723;DHT22;7452;55.594;12.986;2023-01-28T00:04:28;-0.80;99.90
14723;DHT22;7452;55.594;12.986;2023-01-28T00:06:57;-0.90;99.90
14723;DHT22;7452;55.594;12.986;2023-01-28T00:09:26;-0.90;99.90
14723;DHT22;7452;55.594;12.986;2023-01-28T00:11:57;-0.80;99.90
14723;DHT22;7452;55.594;12.986;2023-01-28T00:14:26;-0.80;99.90
14723;DHT22;7452;55.594;12.986;2023-01-28T00:16:55;-0.80;99.90
14723;DHT22;7452;55.594;12.986;2023-01-28T00:19:23;-0.70;99.90
14723;DHT22;7452;55.594;12.986;2023-01-28T00:21:50;-0.70;99.90
14723;DHT22;7452;55.594;12.986;2023-01-28T00:24:18;-0.50;99.90
14723;DHT22;7452;55.594;12.986;2023-01-28T00:26:49;-0.50;99.90
14723;DHT22;7452;55.594;12.986;2023-01-28T00:29:17;-0.40;99.90
14723;DHT22;7452;55.594;12.986;2023-01-28T00:31:44;-0.50;99.90
14723;DHT22;7452;55.594;12.986;2023-01-28T00:34:12;-0.60;99.90
14723;DHT22;7452;55.594;12.986;2023-01-28T00:36:41;-0.70;99.90
14723;DHT22;7452;55.594;12.986;2023-01-28T00:39:13;-0.70;99.90
14723;DHT22;7452;55.594;12.986;2023-01-28T00:41:42;-0.70;99.90
14723;DHT22;7452;55.594;12.986;2023-01-28T00:44:14;-0.70;99.90
14723;DHT22;7452;55.594;12.986;2023-01-28T00:46:42;-0.70;99.90
14723;DHT22;7452;55.594;12.986;2023-01-28T00:49:10;-0.80;99.90
14723;DHT22;7452;55.594;12.986;2023-01-28T00:51:42;-0.80;99.90
14723;DHT22;7452;55.594;12.986;2023-01-28T00:54:14;-0.80;99.90
14723;DHT22;7452;55.594;12.986;2023-01-28T00:56:41;-0.80;99.90
14723;DHT22;7452;55.594;12.986;2023-01-28T00:59:13;-0.80;99.90
14723;DHT22;7452;55.594;12.986;2023-01-28T01:01:41;-0.90;99.90
14723;DHT22;7452;55.594;12.986;2023-01-28T01:04:10;-0.80;99.90
14723;DHT22;7452;55.594;12.986;2023-01-28T01:06:52;-0.80;99.90
14723;DHT22;7452;55.594;12.986;2023-01-28T01:09:20;-0.90;99.90
14723;DHT22;7452;55.594;12.986;2023-01-28T01:11:50;-0.90;99.90
14723;DHT22;7452;55.594;12.986;2023-01-28T01:14:19;-0.90;99.90
14723;DHT22;7452;55.594;12.986;2023-01-28T01:16:47;-0.90;99.90
14723;DHT22;7452;55.594;12.986;2023-01-28T01:19:14;-0.80;99.90
14723;DHT22;7452;55.594;12.986;2023-01-28T01:21:42;-0.80;99.90
14723;DHT22;7452;55.594;12.986;2023-01-28T01:24:15;-0.80;99.90
14723;DHT22;7452;55.594;12.986;2023-01-28T01:26:43;-0.80;99.90
14723;DHT22;7452;55.594;12.986;2023-01-28T01:29:10;-0.70;99.90
14723;DHT22;7452;55.594;12.986;2023-01-28T01:31:43;-0.70;99.90
14723;DHT22;7452;55.594;12.986;2023-01-28T01:34:11;-0.70;99.90
14723;DHT22;7452;55.594;12.986;2023-01-28T01:36:44;-0.60;99.90
14723;DHT22;7452;55.594;12.986;2023-01-28T01:39:13;-0.70;99.90
14723;DHT22;7452;55.594;12.986;2023-01-28T01:41:43;-0.70;99.90
14723;DHT22;7452;55.594;12.986;2023-01-28T01:47:13;-0.70;99.90
14723;DHT22;7452;55.594;12.986;2023-01-28T01:49:41;-0.70;99.90
14723;DHT22;7452;55.594;12.986;2023-01-28T01:52:12;-0.70;99.90
14723;DHT22;7452;55.594;12.986;2023-01-28T01:54:45;-0.70;99.90
14723;DHT22;7452;55.594;12.986;2023-01-28T01:57:16;-0.80;99.90
14723;DHT22;7452;55.594;12.986;2023-01-28T01:59:48;-0.70;99.90
14723;DHT22;7452;55.594;12.986;2023-01-28T02:02:17;-0.80;99.90
14723;DHT22;7452;55.594;12.986;2023-01-28T02:04:45;-0.90;99.90
14723;DHT22;7452;55.594;12.986;2023-01-28T02:07:15;-0.90;99.90
14723;DHT22;7452;55.594;12.986;2023-01-28T02:09:45;-0.90;99.90
14723;DHT22;7452;55.594;12.986;2023-01-28T02:12:16;-0.90;99.90
14723;DHT22;7452;55.594;12.986;2023-01-28T02:14:47;-0.90;99.90
14723;DHT22;7452;55.594;12.986;2023-01-28T02:17:19;-0.90;99.90
14723;DHT22;7452;55.594;12.986;2023-01-28T02:19:53;-0.90;99.90
14723;DHT22;7452;55.594;12.986;2023-01-28T02:22:45;-0.90;99.90
14723;DHT22;7452;55.594;12.986;2023-01-28T02:26:02;-0.90;99.90
14723;DHT22;7452;55.594;12.986;2023-01-28T02:28:36;-0.90;99.90
14723;DHT22;7452;55.594;12.986;2023-01-28T02:31:09;-0.90;99.90
14723;DHT22;7452;55.594;12.986;2023-01-28T02:33:45;-0.90;99.90
14723;DHT22;7452;55.594;12.986;2023-01-28T02:36:23;-0.90;99.90
14723;DHT22;7452;55.594;12.986;2023-01-28T02:38:56;-0.90;99.90
14723;DHT22;7452;55.594;12.986;2023-01-28T02:41:28;-0.90;99.90
14723;DHT22;7452;55.594;12.986;2023-01-28T02:44:01;-0.90;99.90
14723;DHT22;7452;55.594;12.986;2023-01-28T02:46:36;-1.00;99.90
14723;DHT22;7452;55.594;12.986;2023-01-28T02:49:26;-1.00;99.90
14723;DHT22;7452;55.594;12.986;2023-01-28T02:55:27;-1.00;99.90
14723;DHT22;7452;55.594;12.986;2023-01-28T02:58:04;-1.00;99.90
14723;DHT22;7452;55.594;12.986;2023-01-28T03:00:49;-0.90;99.90
14723;DHT22;7452;55.594;12.986;2023-01-28T03:03:24;-1.00;99.90
14723;DHT22;7452;55.594;12.986;2023-01-28T03:05:57;-1.00;99.90
14723;DHT22;7452;55.594;12.986;2023-01-28T03:08:43;-1.00;99.90
14723;DHT22;7452;55.594;12.986;2023-01-28T03:11:30;-1.00;99.90
14723;DHT22;7452;55.594;12.986;2023-01-28T03:14:18;-1.00;99.90
14723;DHT22;7452;55.594;12.986;2023-01-28T03:17:09;-1.00;99.90
14723;DHT22;7452;55.594;12.986;2023-01-28T03:19:55;-1.00;99.90
14723;DHT22;7452;55.594;12.986;2023-01-28T03:22:44;-1.00;99.90
14723;DHT22;7452;55.594;12.986;2023-01-28T03:25:30;-1.10;99.90
14723;DHT22;7452;55.594;12.986;2023-01-28T03:28:17;-1.00;99.90
14723;DHT22;7452;55.594;12.986;2023-01-28T03:31:06;-0.90;99.90
14723;DHT22;7452;55.594;12.986;2023-01-28T03:33:56;-0.90;99.90
14723;DHT22;7452;55.594;12.986;2023-01-28T03:36:45;-0.90;99.90
14723;DHT22;7452;55.594;12.986;2023-01-28T03:39:21;-0.80;99.90
14723;DHT22;7452;55.594;12.986;2023-01-28T03:41:56;-0.80;99.90
14723;DHT22;7452;55.594;12.986;2023-01-28T03:44:24;-0.80;99.90
14723;DHT22;7452;55.594;12.986;2023-01-28T03:47:09;-0.70;99.90
14723;DHT22;7452;55.594;12.986;2023-01-28T03:49:41;-0.50;99.90
14723;DHT22;7452;55.594;12.986;2023-01-28T03:52:10;-0.40;99.90
14723;DHT22;7452;55.594;12.986;2023-01-28T03:54:37;-0.30;99.90
14723;DHT22;7452;55.594;12.986;2023-01-28T03:57:06;-0.30;99.90
14723;DHT22;7452;55.594;12.986;2023-01-28T03:59:34;-0.20;99.90
14723;DHT22;7452;55.594;12.986;2023-01-28T04:02:06;-0.20;99.90
14723;DHT22;7452;55.594;12.986;2023-01-28T04:04:34;-0.20;99.90
14723;DHT22;7452;55.594;12.986;2023-01-28T04:07:04;-0.20;99.90
14723;DHT22;7452;55.594;12.986;2023-01-28T04:09:39;-0.20;99.90
14723;DHT22;7452;55.594;12.986;2023-01-28T04:12:07;-0.20;99.90
14723;DHT22;7452;55.594;12.986;2023-01-28T04:14:34;-0.20;99.90
14723;DHT22;7452;55.594;12.986;2023-01-28T04:17:02;-0.20;99.90
14723;DHT22;7452;55.594;12.986;2023-01-28T04:19:32;-0.20;99.90
14723;DHT22;7452;55.594;12.986;2023-01-28T04:22:09;-0.20;99.90
14723;DHT22;7452;55.594;12.986;2023-01-28T04:24:37;-0.20;99.90
14723;DHT22;7452;55.594;12.986;2023-01-28T04:27:07;-0.20;99.90
14723;DHT22;7452;55.594;12.986;2023-01-28T04:29:39;-0.20;99.90
14723;DHT22;7452;55.594;12.986;2023-01-28T04:32:07;-0.20;99.90
14723;DHT22;7452;55.594;12.986;2023-01-28T04:34:34;-0.10;99.90
14723;DHT22;7452;55.594;12.986;2023-01-28T04:37:04;-0.10;99.90
14723;DHT22;7452;55.594;12.986;2023-01-28T04:39:31;0.00;99.90
14723;DHT22;7452;55.594;12.986;2023-01-28T04:41:58;0.00;99.90
14723;DHT22;7452;55.594;12.986;2023-01-28T04:44:29;0.10;99.90
14723;DHT22;7452;55.594;12.986;2023-01-28T04:46:58;0.10;99.90
14723;DHT22;7452;55.594;12.986;2023-01-28T04:49:26;0.00;99.90
14723;DHT22;7452;55.594;12.986;2023-01-28T04:51:54;0.00;99.90
14723;DHT22;7452;55.594;12.986;2023-01-28T04:54:23;0.10;99.90
14723;DHT22;7452;55.594;12.986;2023-01-28T04:56:52;0.00;99.90
14723;DHT22;7452;55.594;12.986;2023-01-28T04:59:21;0.10;99.90
14723;DHT22;7452;55.594;12.986;2023-01-28T05:01:48;0.10;99.90
14723;DHT22;7452;55.594;12.986;2023-01-28T05:04:17;0.10;99.90
14723;DHT22;7452;55.594;12.986;2023-01-28T05:06:45;0.10;99.90
14723;DHT22;7452;55.594;12.986;2023-01-28T05:09:17;0.00;99.90
14723;DHT22;7452;55.594;12.986;2023-01-28T05:11:49;0.20;99.90
14723;DHT22;7452;55.594;12.986;2023-01-28T05:14:19;0.00;99.90
14723;DHT22;7452;55.594;12.986;2023-01-28T05:16:46;0.00;99.90
14723;DHT22;7452;55.594;12.986;2023-01-28T05:19:14;0.00;99.90
14723;DHT22;7452;55.594;12.986;2023-01-28T05:21:46;-0.10;99.90
14723;DHT22;7452;55.594;12.986;2023-01-28T05:24:14;0.00;99.90
14723;DHT22;7452;55.594;12.986;2023-01-28T05:26:46;-0.10;99.90
14723;DHT22;7452;55.594;12.986;2023-01-28T05:29:13;-0.10;99.90
14723;DHT22;7452;55.594;12.986;2023-01-28T05:31:56;0.00;99.90
14723;DHT22;7452;55.594;12.986;2023-01-28T05:34:24;-0.10;99.90
14723;DHT22;7452;55.594;12.986;2023-01-28T05:36:53;-0.10;99.90
14723;DHT22;7452;55.594;12.986;2023-01-28T05:39:23;-0.10;99.90
14723;DHT22;7452;55.594;12.986;2023-01-28T05:41:52;-0.10;99.90
14723;DHT22;7452;55.594;12.986;2023-01-28T05:44:20;-0.10;99.90
14723;DHT22;7452;55.594;12.986;2023-01-28T05:46:48;-0.20;99.90
14723;DHT22;7452;55.594;12.986;2023-01-28T05:49:17;-0.20;99.90
14723;DHT22;7452;55.594;12.986;2023-01-28T05:51:47;-0.20;99.90
14723;DHT22;7452;55.594;12.986;2023-01-28T05:54:17;-0.20;99.90
14723;DHT22;7452;55.594;12.986;2023-01-28T05:56:46;-0.10;99.90
14723;DHT22;7452;55.594;12.986;2023-01-28T05:59:16;0.00;99.90
14723;DHT22;7452;55.594;12.986;2023-01-28T06:01:43;0.00;99.90
14723;DHT22;7452;55.594;12.986;2023-01-28T06:04:10;0.10;99.90
14723;DHT22;7452;55.594;12.986;2023-01-28T06:06:39;0.10;99.90
14723;DHT22;7452;55.594;12.986;2023-01-28T06:09:08;0.10;99.90
14723;DHT22;7452;55.594;12.986;2023-01-28T06:11:35;0.10;99.90
14723;DHT22;7452;55.594;12.986;2023-01-28T06:14:07;0.10;99.90
14723;DHT22;7452;55.594;12.986;2023-01-28T06:16:36;0.10;99.90
14723;DHT22;7452;55.594;12.986;2023-01-28T06:19:03;0.10;99.90
14723;DHT22;7452;55.594;12.986;2023-01-28T06:21:35;0.10;99.90
14723;DHT22;7452;55.594;12.986;2023-01-28T06:24:03;0.00;99.90
14723;DHT22;7452;55.594;12.986;2023-01-28T06:26:30;0.10;99.90
14723;DHT22;7452;55.594;12.986;2023-01-28T06:29:01;0.00;99.90
14723;DHT22;7452;55.594;12.986;2023-01-28T06:31:28;0.10;99.90
14723;DHT22;7452;55.594;12.986;2023-01-28T06:33:59;0.00;99.90
14723;DHT22;7452;55.594;12.986;2023-01-28T06:36:28;0.00;99.90
14723;DHT22;7452;55.594;12.986;2023-01-28T06:38:57;0.00;99.90
14723;DHT22;7452;55.594;12.986;2023-01-28T06:41:27;0.00;99.90
14723;DHT22;7452;55.594;12.986;2023-01-28T06:43:55;0.00;99.90
14723;DHT22;7452;55.594;12.986;2023-01-28T06:46:22;0.00;99.90
14723;DHT22;7452;55.594;12.986;2023-01-28T06:48:50;0.00;99.90
14723;DHT22;7452;55.594;12.986;2023-01-28T06:51:21;0.00;99.90
14723;DHT22;7452;55.594;12.986;2023-01-28T06:53:50;-0.10;99.90
14723;DHT22;7452;55.594;12.986;2023-01-28T06:56:18;0.00;99.90
14723;DHT22;7452;55.594;12.986;2023-01-28T06:58:46;-0.10;99.90
14723;DHT22;7452;55.594;12.986;2023-01-28T07:01:15;-0.10;99.90
14723;DHT22;7452;55.594;12.986;2023-01-28T07:03:44;-0.10;99.90
14723;DHT22;7452;55.594;12.986;2023-01-28T07:06:18;-0.10;99.90
14723;DHT22;7452;55.594;12.986;2023-01-28T07:08:46;-0.10;99.90
14723;DHT22;7452;55.594;12.986;2023-01-28T07:11:16;-0.10;99.90
14723;DHT22;7452;55.594;12.986;2023-01-28T07:13:50;-0.10;99.90
14723;DHT22;7452;55.594;12.986;2023-01-28T07:16:26;-0.10;99.90
14723;DHT22;7452;55.594;12.986;2023-01-28T07:18:54;-0.10;99.90
14723;DHT22;7452;55.594;12.986;2023-01-28T07:21:28;-0.10;99.90
14723;DHT22;7452;55.594;12.986;2023-01-28T07:24:04;0.00;99.90
14723;DHT22;7452;55.594;12.986;2023-01-28T07:26:31;0.10;99.90
14723;DHT22;7452;55.594;12.986;2023-01-28T07:28:59;0.10;99.90
14723;DHT22;7452;55.594;12.986;2023-01-28T07:31:27;0.10;99.90
14723;DHT22;7452;55.594;12.986;2023-01-28T07:33:54;0.10;99.90
14723;DHT22;7452;55.594;12.986;2023-01-28T07:36:21;0.20;99.90
14723;DHT22;7452;55.594;12.986;2023-01-28T07:38:55;0.20;99.90
14723;DHT22;7452;55.594;12.986;2023-01-28T07:41:23;0.30;99.90
14723;DHT22;7452;55.594;12.986;2023-01-28T07:43:53;0.30;99.90
14723;DHT22;7452;55.594;12.986;2023-01-28T07:46:34;0.40;99.90
14723;DHT22;7452;55.594;12.986;2023-01-28T07:49:02;0.40;99.90
14723;DHT22;7452;55.594;12.986;2023-01-28T07:51:34;0.40;99.90
14723;DHT22;7452;55.594;12.986;2023-01-28T07:54:04;0.40;99.90
14723;DHT22;7452;55.594;12.986;2023-01-28T07:56:41;0.50;99.90
14723;DHT22;7452;55.594;12.986;2023-01-28T07:59:10;0.50;99.90
14723;DHT22;7452;55.594;12.986;2023-01-28T08:01:38;0.60;99.90
14723;DHT22;7452;55.594;12.986;2023-01-28T08:04:08;0.60;99.90
14723;DHT22;7452;55.594;12.986;2023-01-28T08:06:39;0.70;99.90
14723;DHT22;7452;55.594;12.986;2023-01-28T08:09:14;0.80;99.90
14723;DHT22;7452;55.594;12.986;2023-01-28T08:11:42;0.70;99.90
14723;DHT22;7452;55.594;12.986;2023-01-28T08:14:10;0.90;99.90
14723;DHT22;7452;55.594;12.986;2023-01-28T08:16:38;1.00;99.90
14723;DHT22;7452;55.594;12.986;2023-01-28T08:19:07;1.10;99.90
14723;DHT22;7452;55.594;12.986;2023-01-28T08:21:36;1.10;99.90
14723;DHT22;7452;55.594;12.986;2023-01-28T08:24:06;1.20;99.90
14723;DHT22;7452;55.594;12.986;2023-01-28T08:26:38;1.30;99.90
14723;DHT22;7452;55.594;12.986;2023-01-28T08:29:06;1.30;99.90
14723;DHT22;7452;55.594;12.986;2023-01-28T08:31:33;1.20;99.90
14723;DHT22;7452;55.594;12.986;2023-01-28T08:34:07;1.20;99.90
14723;DHT22;7452;55.594;12.986;2023-01-28T08:36:36;1.20;99.90
14723;DHT22;7452;55.594;12.986;2023-01-28T08:39:17;1.20;99.90
14723;DHT22;7452;55.594;12.986;2023-01-28T08:41:49;1.20;99.90
14723;DHT22;7452;55.594;12.986;2023-01-28T08:44:17;1.10;99.90
14723;DHT22;7452;55.594;12.986;2023-01-28T08:46:49;1.10;99.90
14723;DHT22;7452;55.594;12.986;2023-01-28T08:49:18;1.00;99.90
14723;DHT22;7452;55.594;12.986;2023-01-28T08:51:46;1.10;99.90
14723;DHT22;7452;55.594;12.986;2023-01-28T08:54:14;1.10;99.90
14723;DHT22;7452;55.594;12.986;2023-01-28T08:56:44;1.10;99.90
14723;DHT22;7452;55.594;12.986;2023-01-28T08:59:17;1.10;99.90
14723;DHT22;7452;55.594;12.986;2023-01-28T09:06:59;1.10;99.90
14723;DHT22;7452;55.594;12.986;2023-01-28T09:09:26;1.10;99.90
14723;DHT22;7452;55.594;12.986;2023-01-28T09:11:53;1.10;99.90
14723;DHT22;7452;55.594;12.986;2023-01-28T09:14:22;1.10;99.90
14723;DHT22;7452;55.594;12.986;2023-01-28T09:16:49;1.10;99.90
14723;DHT22;7452;55.594;12.986;2023-01-28T09:19:16;1.10;99.90
14723;DHT22;7452;55.594;12.986;2023-01-28T09:21:43;1.10;99.90
14723;DHT22;7452;55.594;12.986;2023-01-28T09:24:10;1.10;99.90
14723;DHT22;7452;55.594;12.986;2023-01-28T09:26:37;1.10;99.90
14723;DHT22;7452;55.594;12.986;2023-01-28T09:29:05;1.20;99.90
14723;DHT22;7452;55.594;12.986;2023-01-28T09:31:33;1.20;99.90
14723;DHT22;7452;55.594;12.986;2023-01-28T09:34:03;1.20;99.90
14723;DHT22;7452;55.594;12.986;2023-01-28T09:36:29;1.30;99.90
14723;DHT22;7452;55.594;12.986;2023-01-28T09:38:57;1.30;99.90
14723;DHT22;7452;55.594;12.986;2023-01-28T09:41:27;1.30;99.90
14723;DHT22;7452;55.594;12.986;2023-01-28T09:44:24;1.30;99.90
14723;DHT22;7452;55.594;12.986;2023-01-28T09:47:02;1.30;99.90
14723;DHT22;7452;55.594;12.986;2023-01-28T09:49:34;1.20;99.90
14723;DHT22;7452;55.594;12.986;2023-01-28T09:52:03;1.30;99.90
14723;DHT22;7452;55.594;12.986;2023-01-28T09:54:36;1.30;99.90
14723;DHT22;7452;55.594;12.986;2023-01-28T09:57:10;1.30;99.90
14723;DHT22;7452;55.594;12.986;2023-01-28T09:59:38;1.50;99.90
14723;DHT22;7452;55.594;12.986;2023-01-28T10:02:25;1.30;99.90
14723;DHT22;7452;55.594;12.986;2023-01-28T10:04:58;1.40;99.90
14723;DHT22;7452;55.594;12.986;2023-01-28T10:07:35;1.50;99.90
14723;DHT22;7452;55.594;12.986;2023-01-28T10:10:11;1.50;99.90
14723;DHT22;7452;55.594;12.986;2023-01-28T10:12:56;1.50;99.90
14723;DHT22;7452;55.594;12.986;2023-01-28T10:15:48;1.50;99.90
14723;DHT22;7452;55.594;12.986;2023-01-28T10:18:25;1.50;99.90
14723;DHT22;7452;55.594;12.986;2023-01-28T10:21:04;1.50;99.90
14723;DHT22;7452;55.594;12.986;2023-01-28T10:23:44;1.60;99.90
14723;DHT22;7452;55.594;12.986;2023-01-28T10:26:20;1.60;99.90
14723;DHT22;7452;55.594;12.986;2023-01-28T10:28:53;1.60;99.90
14723;DHT22;7452;55.594;12.986;2023-01-28T10:31:22;1.60;99.90
14723;DHT22;7452;55.594;12.986;2023-01-28T10:33:52;1.60;99.90
14723;DHT22;7452;55.594;12.986;2023-01-28T10:36:20;1.60;99.90
14723;DHT22;7452;55.594;12.986;2023-01-28T10:38:48;1.60;99.90
14723;DHT22;7452;55.594;12.986;2023-01-28T10:41:19;1.70;99.90
14723;DHT22;7452;55.594;12.986;2023-01-28T10:43:47;1.80;99.90
14723;DHT22;7452;55.594;12.986;2023-01-28T10:46:20;1.80;99.90
14723;DHT22;7452;55.594;12.986;2023-01-28T10:48:55;1.80;99.90
14723;DHT22;7452;55.594;12.986;2023-01-28T10:51:33;1.90;99.90
14723;DHT22;7452;55.594;12.986;2023-01-28T10:54:00;1.90;99.90
14723;DHT22;7452;55.594;12.986;2023-01-28T10:56:29;1.90;99.90
14723;DHT22;7452;55.594;12.986;2023-01-28T10:58:59;1.90;99.90
14723;DHT22;7452;55.594;12.986;2023-01-28T11:01:40;1.90;99.90
14723;DHT22;7452;55.594;12.986;2023-01-28T11:04:18;1.90;99.90
14723;DHT22;7452;55.594;12.986;2023-01-28T11:06:52;1.90;99.90
14723;DHT22;7452;55.594;12.986;2023-01-28T11:09:21;1.90;99.90
14723;DHT22;7452;55.594;12.986;2023-01-28T11:11:48;2.00;99.90
14723;DHT22;7452;55.594;12.986;2023-01-28T11:14:23;2.10;99.90
14723;DHT22;7452;55.594;12.986;2023-01-28T11:16:52;2.20;99.90
14723;DHT22;7452;55.594;12.986;2023-01-28T11:19:26;2.20;99.90
14723;DHT22;7452;55.594;12.986;2023-01-28T11:22:00;2.20;99.90
14723;DHT22;7452;55.594;12.986;2023-01-28T11:24:35;2.10;99.90
14723;DHT22;7452;55.594;12.986;2023-01-28T11:27:11;2.10;99.90
14723;DHT22;7452;55.594;12.986;2023-01-28T11:29:41;2.20;99.90
14723;DHT22;7452;55.594;12.986;2023-01-28T11:32:17;2.20;99.90
14723;DHT22;7452;55.594;12.986;2023-01-28T11:34:52;2.30;99.90
14723;DHT22;7452;55.594;12.986;2023-01-28T11:37:22;2.20;99.90
14723;DHT22;7452;55.594;12.986;2023-01-28T11:40:00;2.30;99.90
14723;DHT22;7452;55.594;12.986;2023-01-28T11:42:28;2.10;99.90
14723;DHT22;7452;55.594;12.986;2023-01-28T11:44:57;2.10;99.90
14723;DHT22;7452;55.594;12.986;2023-01-28T11:47:39;2.20;99.90
14723;DHT22;7452;55.594;12.986;2023-01-28T11:50:28;2.20;99.90
14723;DHT22;7452;55.594;12.986;2023-01-28T11:56:05;2.30;99.90
14723;DHT22;7452;55.594;12.986;2023-01-28T11:58:44;2.30;99.90
14723;DHT22;7452;55.594;12.986;2023-01-28T12:01:21;2.20;99.90
14723;DHT22;7452;55.594;12.986;2023-01-28T12:04:19;2.20;99.90
14723;DHT22;7452;55.594;12.986;2023-01-28T12:07:10;2.20;99.90
14723;DHT22;7452;55.594;12.986;2023-01-28T12:09:49;2.20;99.90
14723;DHT22;7452;55.594;12.986;2023-01-28T12:12:39;2.20;99.90
14723;DHT22;7452;55.594;12.986;2023-01-28T12:15:31;2.20;99.90
14723;DHT22;7452;55.594;12.986;2023-01-28T12:18:23;2.20;99.90
14723;DHT22;7452;55.594;12.986;2023-01-28T12:21:00;2.20;99.90
14723;DHT22;7452;55.594;12.986;2023-01-28T12:23:56;2.20;99.90
14723;DHT22;7452;55.594;12.986;2023-01-28T12:26:32;2.30;99.90
14723;DHT22;7452;55.594;12.986;2023-01-28T12:29:17;2.30;99.90
14723;DHT22;7452;55.594;12.986;2023-01-28T12:31:56;2.40;99.90
14723;DHT22;7452;55.594;12.986;2023-01-28T12:34:48;2.40;99.90
14723;DHT22;7452;55.594;12.986;2023-01-28T12:37:26;2.40;99.90
14723;DHT22;7452;55.594;12.986;2023-01-28T12:40:15;2.50;99.90
14723;DHT22;7452;55.594;12.986;2023-01-28T12:42:50;2.40;99.90
14723;DHT22;7452;55.594;12.986;2023-01-28T12:45:23;2.40;99.90
14723;DHT22;7452;55.594;12.986;2023-01-28T12:47:54;2.40;99.90
14723;DHT22;7452;55.594;12.986;2023-01-28T12:50:27;2.40;99.90
14723;DHT22;7452;55.594;12.986;2023-01-28T12:53:00;2.40;99.90
14723;DHT22;7452;55.594;12.986;2023-01-28T12:55:38;2.40;99.90
14723;DHT22;7452;55.594;12.986;2023-01-28T12:58:20;2.30;99.90
14723;DHT22;7452;55.594;12.986;2023-01-28T13:00:50;2.40;99.90
14723;DHT22;7452;55.594;12.986;2023-01-28T13:03:25;2.40;99.90
14723;DHT22;7452;55.594;12.986;2023-01-28T13:05:58;2.40;99.90
14723;DHT22;7452;55.594;12.986;2023-01-28T13:08:28;2.40;99.90
14723;DHT22;7452;55.594;12.986;2023-01-28T13:11:04;2.40;99.90
14723;DHT22;7452;55.594;12.986;2023-01-28T13:13:33;2.30;99.90
14723;DHT22;7452;55.594;12.986;2023-01-28T13:16:02;2.30;99.90
14723;DHT22;7452;55.594;12.986;2023-01-28T13:18:36;2.40;99.90
14723;DHT22;7452;55.594;12.986;2023-01-28T13:21:14;2.40;99.90
14723;DHT22;7452;55.594;12.986;2023-01-28T13:23:48;2.50;99.90
14723;DHT22;7452;55.594;12.986;2023-01-28T13:26:36;2.50;99.90
14723;DHT22;7452;55.594;12.986;2023-01-28T13:29:17;2.60;99.90
14723;DHT22;7452;55.594;12.986;2023-01-28T13:31:47;2.60;99.90
14723;DHT22;7452;55.594;12.986;2023-01-28T13:34:28;2.70;99.90
14723;DHT22;7452;55.594;12.986;2023-01-28T13:36:59;2.60;99.90
14723;DHT22;7452;55.594;12.986;2023-01-28T13:39:28;2.60;99.90
14723;DHT22;7452;55.594;12.986;2023-01-28T13:42:19;2.50;99.90
14723;DHT22;7452;55.594;12.986;2023-01-28T13:44:47;2.50;99.90
14723;DHT22;7452;55.594;12.986;2023-01-28T13:47:23;2.50;99.90
14723;DHT22;7452;55.594;12.986;2023-01-28T13:49:55;2.50;99.90
14723;DHT22;7452;55.594;12.986;2023-01-28T13:52:27;2.50;99.90
14723;DHT22;7452;55.594;12.986;2023-01-28T13:54:58;2.60;99.90
14723;DHT22;7452;55.594;12.986;2023-01-28T14:00:29;2.60;99.90
14723;DHT22;7452;55.594;12.986;2023-01-28T14:03:31;2.70;99.90
14723;DHT22;7452;55.594;12.986;2023-01-28T14:06:35;2.80;99.90
14723;DHT22;7452;55.594;12.986;2023-01-28T14:09:20;2.80;99.90
14723;DHT22;7452;55.594;12.986;2023-01-28T14:12:31;2.80;99.90
14723;DHT22;7452;55.594;12.986;2023-01-28T14:17:56;2.80;99.90
14723;DHT22;7452;55.594;12.986;2023-01-28T14:20:26;2.80;99.90
14723;DHT22;7452;55.594;12.986;2023-01-28T14:22:58;2.90;99.90
14723;DHT22;7452;55.594;12.986;2023-01-28T14:25:32;2.90;99.90
14723;DHT22;7452;55.594;12.986;2023-01-28T14:28:02;2.90;99.90
14723;DHT22;7452;55.594;12.986;2023-01-28T14:30:41;2.90;99.90
14723;DHT22;7452;55.594;12.986;2023-01-28T14:33:10;2.80;99.90
14723;DHT22;7452;55.594;12.986;2023-01-28T14:35:42;2.90;99.90
14723;DHT22;7452;55.594;12.986;2023-01-28T14:38:14;2.90;99.90
14723;DHT22;7452;55.594;12.986;2023-01-28T14:40:56;2.80;99.90
14723;DHT22;7452;55.594;12.986;2023-01-28T14:43:25;2.80;99.90
14723;DHT22;7452;55.594;12.986;2023-01-28T14:46:07;2.80;99.90
14723;DHT22;7452;55.594;12.986;2023-01-28T14:48:42;2.80;99.90
14723;DHT22;7452;55.594;12.986;2023-01-28T14:51:21;2.80;99.90
14723;DHT22;7452;55.594;12.986;2023-01-28T14:57:27;2.80;99.90
14723;DHT22;7452;55.594;12.986;2023-01-28T15:00:00;2.70;99.90
14723;DHT22;7452;55.594;12.986;2023-01-28T15:02:34;2.80;99.90
14723;DHT22;7452;55.594;12.986;2023-01-28T15:05:08;2.80;99.90
14723;DHT22;7452;55.594;12.986;2023-01-28T15:07:35;2.80;99.90
14723;DHT22;7452;55.594;12.986;2023-01-28T15:10:06;2.80;99.90
14723;DHT22;7452;55.594;12.986;2023-01-28T15:12:36;2.80;99.90
14723;DHT22;7452;55.594;12.986;2023-01-28T15:15:18;2.80;99.90
14723;DHT22;7452;55.594;12.986;2023-01-28T15:17:59;2.80;99.90
14723;DHT22;7452;55.594;12.986;2023-01-28T15:20:27;2.80;99.90
14723;DHT22;7452;55.594;12.986;2023-01-28T15:22:54;2.80;99.90
14723;DHT22;7452;55.594;12.986;2023-01-28T15:25:23;2.80;99.90
14723;DHT22;7452;55.594;12.986;2023-01-28T15:27:54;2.80;99.90
14723;DHT22;7452;55.594;12.986;2023-01-28T15:30:27;2.80;99.90
14723;DHT22;7452;55.594;12.986;2023-01-28T15:33:02;2.80;99.90
14723;DHT22;7452;55.594;12.986;2023-01-28T15:35:31;2.90;99.90
14723;DHT22;7452;55.594;12.986;2023-01-28T15:37:58;2.90;99.90
14723;DHT22;7452;55.594;12.986;2023-01-28T15:40:27;2.90;99.90
14723;DHT22;7452;55.594;12.986;2023-01-28T15:42:55;2.90;99.90
14723;DHT22;7452;55.594;12.986;2023-01-28T15:45:24;2.90;99.90
14723;DHT22;7452;55.594;12.986;2023-01-28T15:48:07;2.90;99.90
14723;DHT22;7452;55.594;12.986;2023-01-28T15:50:34;2.90;99.90
14723;DHT22;7452;55.594;12.986;2023-01-28T15:53:07;2.90;99.90
14723;DHT22;7452;55.594;12.986;2023-01-28T15:55:38;2.90;99.90
14723;DHT22;7452;55.594;12.986;2023-01-28T15:58:26;2.90;99.90
14723;DHT22;7452;55.594;12.986;2023-01-28T16:01:13;2.90;99.90
14723;DHT22;7452;55.594;12.986;2023-01-28T16:03:58;3.00;99.90
14723;DHT22;7452;55.594;12.986;2023-01-28T16:06:31;2.90;99.90
14723;DHT22;7452;55.594;12.986;2023-01-28T16:09:02;2.90;99.90
14723;DHT22;7452;55.594;12.986;2023-01-28T16:11:31;3.00;99.90
14723;DHT22;7452;55.594;12.986;2023-01-28T16:13:59;3.00;99.90
14723;DHT22;7452;55.594;12.986;2023-01-28T16:16:29;3.00;99.90
14723;DHT22;7452;55.594;12.986;2023-01-28T16:18:58;3.00;99.90
14723;DHT22;7452;55.594;12.986;2023-01-28T16:21:28;3.00;99.90
14723;DHT22;7452;55.594;12.986;2023-01-28T16:24:01;3.00;99.90
14723;DHT22;7452;55.594;12.986;2023-01-28T16:26:32;2.90;99.90
14723;DHT22;7452;55.594;12.986;2023-01-28T16:29:08;3.00;99.90
14723;DHT22;7452;55.594;12.986;2023-01-28T16:31:37;3.00;99.90
14723;DHT22;7452;55.594;12.986;2023-01-28T16:34:07;3.00;99.90
14723;DHT22;7452;55.594;12.986;2023-01-28T16:36:35;2.90;99.90
14723;DHT22;7452;55.594;12.986;2023-01-28T16:39:05;2.90;99.90
14723;DHT22;7452;55.594;12.986;2023-01-28T16:41:36;2.90;99.90